»·PEaware :: N2102W L70-KFUL

N2102W :: L70-KFUL

FLIGHT INFORMATION

Flight Status: Arrived
Operator: Privately registered:
United States
More flights under this callsign
Pilot: Eric G. (5941)
Aircraft: BEECH AIRCRAFT BEECHJET HAWKER 400
(BE40)
More flights by this aircraft type
Origin: L70 Agua Dulce
United States
Destination: KFUL Fullerton Mun
United States
More flights between these airports :: More routes between these airports
Route: +KIMMO V459 SLI
File this flight plan on PilotEdge
Remarks:
Altitude:
(Current/Filed)
9,000ft
Speed:
(Current/Filed)
225kts
Departed: 19-Nov-17 08:51 AM
Arrived: 19-Nov-17 09:24 AM
Distance/Time
Traveled:
41nm/0:33
Distance/Time
To Go:
Arrived

Flight Plot

Page will automatically refresh every two minutes.

Flight plan parsing failed; only flown route is shown


Map Options




Map Legend


Flown Route
Filed Route
Departure Airport
Arrival Airport
Navaid (VOR, NDB)
Fix

Horizontal Profiles

Position Reports

Time Latitude Longitude Heading Altitude Ground
Speed
19-Nov-17 08:37 34.502993 -118.314894 139 2607ft 0kts
19-Nov-17 08:38 34.502992 -118.314892 139 2607ft 0kts
19-Nov-17 08:39 34.502990 -118.314891 139 2607ft 0kts
19-Nov-17 08:40 34.502989 -118.314889 139 2607ft 0kts
19-Nov-17 08:41 34.502987 -118.314888 139 2607ft 0kts
19-Nov-17 08:42 34.502986 -118.314887 139 2607ft 0kts
19-Nov-17 08:43 34.502985 -118.314885 139 2607ft 0kts
19-Nov-17 08:44 34.502983 -118.314884 139 2607ft 0kts
19-Nov-17 08:45 34.502982 -118.314882 139 2607ft 0kts
19-Nov-17 08:46 34.502980 -118.314881 139 2607ft 0kts
19-Nov-17 08:47 34.502979 -118.314879 139 2607ft 0kts
19-Nov-17 08:48 34.502977 -118.314878 139 2607ft 0kts
19-Nov-17 08:49 34.502976 -118.314877 139 2607ft 0kts
19-Nov-17 08:50 34.505631 -118.310577 54 2607ft 23kts
19-Nov-17 08:51 34.507703 -118.307124 82 2607ft 0kts
19-Nov-17 08:52 34.507704 -118.307122 82 2607ft 0kts
19-Nov-17 08:53 34.507704 -118.307119 82 2607ft 0kts
19-Nov-17 08:54 34.507704 -118.307117 82 2607ft 0kts
19-Nov-17 08:55 34.507640 -118.306864 137 2607ft 6kts
19-Nov-17 08:56 34.490695 -118.336340 236 3395ft 186kts
19-Nov-17 08:57 34.442854 -118.391795 220 5967ft 277kts
19-Nov-17 08:58 34.382505 -118.416035 137 8205ft 258kts
19-Nov-17 08:59 34.335950 -118.357364 167 8318ft 255kts
19-Nov-17 09:00 34.277788 -118.334084 155 8768ft 205kts
19-Nov-17 09:01 34.221298 -118.304146 157 8854ft 222kts
19-Nov-17 09:02 34.158948 -118.270317 155 8866ft 257kts
19-Nov-17 09:03 34.105289 -118.238315 153 8877ft 244kts
19-Nov-17 09:04 34.048769 -118.203860 153 8864ft 246kts
19-Nov-17 09:05 33.986800 -118.181703 189 8286ft 227kts
19-Nov-17 09:06 33.925238 -118.195935 192 7025ft 206kts
19-Nov-17 09:07 33.864704 -118.210964 192 7003ft 237kts
19-Nov-17 09:08 33.797564 -118.227928 192 7002ft 248kts
19-Nov-17 09:09 33.730988 -118.244648 193 7009ft 250kts
19-Nov-17 09:10 33.664535 -118.218346 147 5988ft 264kts
19-Nov-17 09:11 33.609753 -118.165017 105 5031ft 252kts
19-Nov-17 09:12 33.611868 -118.084097 82 5008ft 248kts
19-Nov-17 09:13 33.619909 -118.001124 81 5001ft 252kts
19-Nov-17 09:14 33.655698 -117.950325 33 4993ft 227kts
19-Nov-17 09:15 33.703190 -117.912219 32 4995ft 194kts
19-Nov-17 09:16 33.767472 -117.861536 32 5003ft 264kts
19-Nov-17 09:17 33.808439 -117.812494 59 4990ft 216kts
19-Nov-17 09:18 33.835087 -117.751848 61 4820ft 203kts
19-Nov-17 09:19 33.858832 -117.697928 61 4031ft 181kts
19-Nov-17 09:20 33.883086 -117.643685 61 4020ft 178kts
19-Nov-17 09:21 33.918480 -117.646357 286 3167ft 178kts
19-Nov-17 09:22 33.921105 -117.701920 260 3031ft 162kts
19-Nov-17 09:23 33.915335 -117.753760 257 2927ft 161kts
19-Nov-17 09:24 33.906419 -117.805761 252 2591ft 144kts
19-Nov-17 09:25 33.896391 -117.851663 257 2299ft 132kts
19-Nov-17 09:26 33.887761 -117.897091 258 1971ft 138kts
19-Nov-17 09:27 33.879767 -117.940259 255 944ft 124kts
19-Nov-17 09:28 33.872028 -117.979790 258 101ft 87kts
19-Nov-17 09:29 33.870770 -117.984635 142 101ft 0kts
19-Nov-17 09:30 33.870776 -117.984047 61 101ft 7kts
19-Nov-17 09:31 33.871164 -117.980885 97 101ft 7kts
19-Nov-17 09:32 33.870820 -117.980171 264 101ft 0kts
19-Nov-17 09:33 33.870820 -117.980172 264 101ft 0kts

Navigation Log

Ident Type
Flight plan parsing failed, navigation log unavailable